Aeroporto :
LOGIN :

Iscrizione | Disclaimer

   EN    FR    IT 

 










Sommario :    VFR   VFR Marginale   IFR   IFR Intensivo   IFR Molto Intensivo
Visibilità : 
Base nubi : 
>= 8 km
>= 3000ft
5 / 8 km
1000 / 3000 ft
1500m / 5 km
500 / 1000 ft
800 / 1500m
200 / 500 ft
< 800m
< 200 ft
Simboli :   Temporali  Nebbia  Neve Forte  Precipitazioni Forti  Vento > 20 kt
SIGMETs :   Varie  Temporali  Ghiacco  Turbolenza  Onda orograficha  Ceneri Vulcaniche






- Altitudine del aeroporto : 580 ft


LFOA - Avord

ULTIMO METAR :
  • 071830Z AUTO 18004KT 9999 FEW031 SCT042 09/08 Q1021

METARs OBSOLETI :
  • 071800Z AUTO 20005KT 9999 FEW011 SCT037 BKN044 09/09 Q1021
  • 071730Z AUTO 19003KT 8000 -DZ BKN013 BKN020 BKN027 09/09 Q1021
  • 071700Z AUTO 20003KT 9999 FEW013 SCT021 BKN027 09/09 Q1021
  • 071630Z AUTO 21002KT 9999 BKN009 BKN015 OVC026 09/09 Q1021
  • 071600Z AUTO 23002KT 9999 SCT010 BKN024 BKN033 09/08 Q1020

TAF TAF LFOA
Valido dal 07 a 09 ore il 08 a 09 ore UTC


070800Z 0709/0809 24010KT 9999 OVC006
TEMPO 0709/0712 3000 DZ BKN003
TEMPO 0713/0718 BKN008
BECMG 0803/0805 21015G30KT 3000 DZRA BKN004 OVC010



MetMap, La meteo Aeronautica in un colpo d'occhio ! - Copyright ORBIFLY Dicembre 2007 - Disclaimer

ORBIFLY MET'MAP TEAM :

Programmazione e sviluppo : Alexandra Zaïnal
Concezione : Baudouin d'Aumeries
Aiuto per la programmazione : Marc-Olivier Méhu
Supporto tecnico e logistico : Manuel Goepfert
Aiuto per la traduzione : Arnaldo La Scala

Contatto : metmap@orbifly.com




FONTI E CREDITI :

   NOAA